createdAt,value
2019-02-01T00:04:15.876Z,47.04
2019-02-01T00:10:10.895Z,43.01
2019-02-01T00:16:05.860Z,60.39
2019-02-01T00:22:00.946Z,50.81
2019-02-01T00:27:55.871Z,49.63
2019-02-01T00:33:50.918Z,41.34
2019-02-01T00:39:45.903Z,58.4
2019-02-01T00:45:40.897Z,63.16
2019-02-01T00:51:35.911Z,62.17
2019-02-01T00:57:30.894Z,63.78
2019-02-01T01:03:25.906Z,72.3
2019-02-01T01:09:20.930Z,85.02
2019-02-01T01:15:15.901Z,79.23
2019-02-01T01:21:10.917Z,82.14
2019-02-01T01:27:05.905Z,97.83
2019-02-01T01:33:00.913Z,87.53
2019-02-01T01:38:55.985Z,93.34
2019-02-01T01:44:50.926Z,90.82
2019-02-01T01:50:46.024Z,81.26
2019-02-01T01:56:40.955Z,87.15
2019-02-01T02:02:35.929Z,87.9
2019-02-01T02:08:30.975Z,74.75
2019-02-01T02:14:25.960Z,66.55
2019-02-01T02:20:20.941Z,57.16
2019-02-01T02:26:15.928Z,38.06
2019-02-01T02:32:10.940Z,35.09
2019-02-01T02:38:05.963Z,25.05
2019-02-01T02:44:00.942Z,15.21
2019-02-01T02:49:55.962Z,26.88
2019-02-01T02:55:50.952Z,22.77
2019-02-01T03:01:45.986Z,26.73
2019-02-01T03:07:40.975Z,21
2019-02-01T03:13:35.963Z,33.39
2019-02-01T03:19:31.030Z,30.57
2019-02-01T03:25:25.980Z,30.99
2019-02-01T03:31:21.033Z,34.62
2019-02-01T03:37:15.975Z,30.37
2019-02-01T03:43:10.997Z,32.53
2019-02-01T03:49:06.000Z,31.15
2019-02-01T03:55:00.983Z,30.62
2019-02-01T04:00:56.013Z,32.97
2019-02-01T04:06:50.984Z,33.51
2019-02-01T04:12:45.995Z,36.33
2019-02-01T04:18:41.005Z,35.26
2019-02-01T04:24:36.081Z,32.84
2019-02-01T04:30:31.021Z,29.87
2019-02-01T04:36:26.027Z,24.43
2019-02-01T04:42:21.024Z,24.6
2019-02-01T04:48:16.015Z,14.17
2019-02-01T04:54:11.017Z,13.55
2019-02-01T05:00:06.009Z,11.31
2019-02-01T05:06:01.077Z,8.9
2019-02-01T05:11:56.053Z,8.26
2019-02-01T05:17:51.040Z,6.74
2019-02-01T05:23:46.030Z,12.07
2019-02-01T05:29:41.031Z,16.57
2019-02-01T05:35:36.077Z,22.47
2019-02-01T05:41:31.034Z,26.34
2019-02-01T05:47:26.139Z,22.87
2019-02-01T05:53:21.056Z,23.44
2019-02-01T05:59:16.064Z,34.47
2019-02-01T06:05:11.070Z,25.19
2019-02-01T06:11:06.093Z,25
2019-02-01T06:17:01.091Z,28.13
2019-02-01T06:22:56.038Z,28.69
2019-02-01T06:28:51.073Z,27.75
2019-02-01T06:34:46.060Z,28.63
2019-02-01T06:40:41.110Z,28.23
2019-02-01T06:46:36.073Z,33.33
2019-02-01T06:52:31.062Z,33.15
2019-02-01T06:58:26.088Z,33.39
2019-02-01T07:04:21.085Z,30.36
2019-02-01T07:10:16.083Z,37.15
2019-02-01T07:16:11.083Z,34.02
2019-02-01T07:22:06.102Z,38.94
2019-02-01T07:28:01.150Z,41.54
2019-02-01T07:33:56.105Z,35.91
2019-02-01T07:39:51.104Z,37.01
2019-02-01T07:45:46.106Z,46.82
2019-02-01T07:51:41.115Z,38.45
2019-02-01T07:57:36.104Z,42.31
2019-02-01T08:03:31.110Z,49.93
2019-02-01T08:09:26.102Z,48.14
2019-02-01T08:15:21.131Z,58.02
2019-02-01T08:21:26.394Z,50.88
2019-02-01T08:27:11.115Z,61.07
2019-02-01T08:33:06.230Z,77.44
2019-02-01T08:39:01.137Z,72.64
2019-02-01T08:44:56.133Z,66.42
2019-02-01T08:50:51.108Z,64
2019-02-01T08:56:46.164Z,78.1
2019-02-01T09:02:41.141Z,103.44
2019-02-01T09:08:36.153Z,75.74
2019-02-01T09:14:31.155Z,109.65
2019-02-01T09:20:26.152Z,118.69
2019-02-01T09:26:21.160Z,127.21
2019-02-01T09:32:16.174Z,137.75
2019-02-01T09:38:11.177Z,116.56
2019-02-01T09:44:06.135Z,92.8
2019-02-01T09:50:01.140Z,120.77
2019-02-01T09:55:56.198Z,96.82
2019-02-01T10:01:51.199Z,100.56
2019-02-01T10:07:46.227Z,118.65
2019-02-01T10:13:41.185Z,114.01
2019-02-01T10:19:36.167Z,160.66
2019-02-01T10:25:31.194Z,139.55
2019-02-01T10:31:26.192Z,173.93
2019-02-01T10:37:21.213Z,133.54
2019-02-01T10:43:16.198Z,90.57
2019-02-01T10:49:11.196Z,54.39
2019-02-01T10:55:06.220Z,144.42
2019-02-01T11:01:01.186Z,144.67
2019-02-01T11:06:56.193Z,132.02
2019-02-01T11:12:51.205Z,125.6
2019-02-01T11:18:46.241Z,136.35
2019-02-01T11:24:41.243Z,124.19
2019-02-01T11:30:36.269Z,123.03
2019-02-01T11:36:31.250Z,117.52
2019-02-01T11:42:26.275Z,205.22
2019-02-01T11:48:21.275Z,112.28
2019-02-01T11:54:16.334Z,97.53
2019-02-01T12:00:11.704Z,114.18
2019-02-01T12:06:06.220Z,53.27
2019-02-01T12:12:01.248Z,59.82
2019-02-01T12:17:56.255Z,72.69
2019-02-01T12:23:51.263Z,55.13
2019-02-01T12:29:46.250Z,53.67
2019-02-01T12:35:41.243Z,64.94
2019-02-01T12:41:36.261Z,52.63
2019-02-01T12:47:31.273Z,81.03
2019-02-01T12:53:26.262Z,81.68
2019-02-01T12:59:21.270Z,49.44
2019-02-01T13:05:16.259Z,46.41
2019-02-01T13:11:11.338Z,56.51
2019-02-01T13:17:06.270Z,58.37
2019-02-01T13:23:01.269Z,77.77
2019-02-01T13:28:56.296Z,54.92
2019-02-01T13:34:51.304Z,51.68
2019-02-01T13:40:46.333Z,65.47
2019-02-01T13:46:41.323Z,60.02
2019-02-01T13:52:36.285Z,59.67
2019-02-01T13:58:31.312Z,67.6
2019-02-01T14:04:26.309Z,62.92
2019-02-01T14:10:21.295Z,62.48
2019-02-01T14:16:16.306Z,58.83
2019-02-01T14:22:11.311Z,57.55
2019-02-01T14:28:06.306Z,61.87
2019-02-01T14:34:01.314Z,63.04
2019-02-01T14:39:56.319Z,59.93
2019-02-01T14:45:51.307Z,68.57
2019-02-01T14:51:46.349Z,50.21
2019-02-01T14:57:41.383Z,59.63
2019-02-01T15:03:36.318Z,48.4
2019-02-01T15:09:31.329Z,55.11
2019-02-01T15:15:26.343Z,48.41
2019-02-01T15:21:21.327Z,47.3
2019-02-01T15:27:16.361Z,71.99
2019-02-01T15:33:11.353Z,74.75
2019-02-01T15:39:06.340Z,57.97
2019-02-01T15:45:01.342Z,40.74
2019-02-01T15:50:56.366Z,46.14
2019-02-01T15:56:51.394Z,53.96
2019-02-01T16:02:46.363Z,62.55
2019-02-01T16:08:41.362Z,54.4
2019-02-01T16:14:36.369Z,37.69
2019-02-01T16:20:32.934Z,69.16
2019-02-01T16:26:26.397Z,56.55
2019-02-01T16:32:21.383Z,70.93
2019-02-01T16:38:16.418Z,59.67
2019-02-01T16:44:11.488Z,48.18
2019-02-01T16:50:06.405Z,61.87
2019-02-01T16:56:01.436Z,110.93
2019-02-01T17:01:58.997Z,84.17
2019-02-01T17:07:51.431Z,83.88
2019-02-01T17:13:46.416Z,75.7
2019-02-01T17:19:41.424Z,81.77
2019-02-01T17:25:36.408Z,77.84
2019-02-01T17:31:31.437Z,69.12
2019-02-01T17:37:26.472Z,84.13
2019-02-01T17:43:21.425Z,62.95
2019-02-01T17:49:16.459Z,55.64
2019-02-01T17:55:11.424Z,59.07
2019-02-01T18:01:06.444Z,53.52
2019-02-01T18:07:01.466Z,46.33
2019-02-01T18:12:56.445Z,60.4
2019-02-01T18:18:51.434Z,59.47
2019-02-01T18:24:46.447Z,42.78
2019-02-01T18:30:41.521Z,40.09
2019-02-01T18:36:36.522Z,36.05
2019-02-01T18:42:31.433Z,44.2
2019-02-01T18:48:26.462Z,29.7
2019-02-01T18:54:21.487Z,33.83
2019-02-01T19:00:16.480Z,41.35
2019-02-01T19:06:11.509Z,35.63
2019-02-01T19:12:06.496Z,46.08
2019-02-01T19:18:01.462Z,70.02
2019-02-01T19:23:56.478Z,77.3
2019-02-01T19:29:51.482Z,95.87
2019-02-01T19:35:46.483Z,47.36
2019-02-01T19:41:41.504Z,59.74
2019-02-01T19:47:36.494Z,43.16
2019-02-01T19:53:31.492Z,33.57
2019-02-01T19:59:26.538Z,22.37
2019-02-01T20:05:21.524Z,22.46
2019-02-01T20:11:16.533Z,30.5
2019-02-01T20:17:11.515Z,29.58
2019-02-01T20:23:06.538Z,27.78
2019-02-01T20:29:01.570Z,24.8
2019-02-01T20:34:56.517Z,27.93
2019-02-01T20:40:51.533Z,37.23
2019-02-01T20:46:46.537Z,15.65
2019-02-01T20:52:41.560Z,25.33
2019-02-01T20:58:36.555Z,21.18
2019-02-01T21:04:31.541Z,21.96
2019-02-01T21:10:26.576Z,21.15
2019-02-01T21:16:21.556Z,18.79
2019-02-01T21:22:16.595Z,19.4
2019-02-01T21:28:11.549Z,27.67
2019-02-01T21:34:08.011Z,49.58
2019-02-01T21:40:01.561Z,19.63
2019-02-01T21:45:56.567Z,20.2
2019-02-01T21:51:51.567Z,17.47
2019-02-01T21:57:46.558Z,16.14
2019-02-01T22:03:41.585Z,20.24
2019-02-01T22:09:36.576Z,20.97
2019-02-01T22:15:31.575Z,15.18
2019-02-01T22:21:26.582Z,14.83
2019-02-01T22:27:21.592Z,20.61
2019-02-01T22:33:16.604Z,22.66
2019-02-01T22:39:11.596Z,16.46
2019-02-01T22:45:06.592Z,21.35
2019-02-01T22:51:01.610Z,10.22
2019-02-01T22:57:06.031Z,19.45
2019-02-01T23:02:51.598Z,14.91
2019-02-01T23:08:46.641Z,20.79
2019-02-01T23:14:41.601Z,15.56
2019-02-01T23:20:36.614Z,12.95
2019-02-01T23:26:31.644Z,21.36
2019-02-01T23:32:26.627Z,16.29
2019-02-01T23:38:21.657Z,14.8
2019-02-01T23:44:16.632Z,14.31
2019-02-01T23:50:11.630Z,12.15
2019-02-01T23:56:06.660Z,20.94
